Domov               UVHVVR             MKGP            O straneh              
ZDRAVSTVENO VARSTVO RASTLIN
  MREŽA AGROMET. POSTAJ
 ► PROGNOSTIČNA OBVESTILA
AGROMETEOROLOŠKI PODATKI -
ARSO
OBVLADOVANJE TVEGANJ ZARADI
NEUGODNIH VREMENSKIH RAZMER
  ► NARAVNE NESREČE
  ► SUŠA/MOČA
  ► NAMAKANJE
  ► ŽLED (gozdarstvo)
KARTOGRAFSKI PRIKAZI
SPLETNE POVEZAVE
PROJEKTI IN PUBLIKACIJE

AGROMETEOROLOŠKA MREŽA: VREMENSKE POSTAJE IN FENOLOŠKA OPAZOVANJA

Pregled podatkov za lokacijo Gabernik-Rogaška, meteorološka postaja 37800

Pregled senzorjev na lokaciji

ID Ime Zadnja
vrednost
Datum in čas
zadnje
spremembe
(Lokalni čas)
Tip
senzorja
1828 Omočenost lista (U) 10 U 24.10.2020 21:30 A730WET
4946 Padavine (mm) 0 mm 24.10.2020 21:30 Generic 0.2 mm
1827 Relativna vlaga 2 m (% RH) 97.9 % RH 24.10.2020 21:30 50YA
1826 Temperatura 2 m (°C) 11.92 °C 24.10.2020 21:30 50YA

Pregled podatkov zadnjih 24 ur

Zap.
št.
Datum in čas
(Centralno
evropski čas)
Gabernik-Rogaška
Omočenost
lista
Padavine Relativna
vlaga
2
m
Temperatura
2
m
1 24.10.2020 21:30
2 24.10.2020 21:00
3 24.10.2020 20:30 10 0 97.9 11.9
4 24.10.2020 20:00 10 0 96.7 12.1
5 24.10.2020 19:30 10 0 95.7 12.2
6 24.10.2020 19:00 10 0 94.4 12.4
7 24.10.2020 18:30 9 0 92.7 12.6
8 24.10.2020 18:00 7 0 95 12.6
9 24.10.2020 17:30 7 0 95.7 12.6
10 24.10.2020 17:00 3 0 94 12.8
11 24.10.2020 16:30 1 0 91.6 13.3
12 24.10.2020 16:00 2 0 94.5 13.3
13 24.10.2020 15:30 2 0 93.8 13.6
14 24.10.2020 15:00 8 0 93.3 13.7
15 24.10.2020 14:30 10 0 96.6 14.1
16 24.10.2020 14:00 4 0 93.7 14.7
17 24.10.2020 13:30 1 0 93.7 14.5
18 24.10.2020 13:00 1 0 95.4 14.8
19 24.10.2020 12:30 1 0 96.2 14.8
20 24.10.2020 12:00 4 0 95.6 14.5
21 24.10.2020 11:30 10 0 91.2 15.1
22 24.10.2020 11:00 10 0 88.9 15.2
23 24.10.2020 10:30 10 0 87.5 15.2
24 24.10.2020 10:00 0 0 84.1 15.5
25 24.10.2020 09:30 0 0 85.3 15.3
26 24.10.2020 09:00 1 0 89.8 14.5
27 24.10.2020 08:30 1 0 87.3 14.8
28 24.10.2020 08:00 1 0 88.1 14.4
29 24.10.2020 07:30 2 0 87.8 14.4
30 24.10.2020 07:00 3 0 89.9 13.9
31 24.10.2020 06:30 3 0 89.2 14
32 24.10.2020 06:00 2 0 88 14.2
33 24.10.2020 05:30 2 0 88.1 14.2
34 24.10.2020 05:00 1 0 86.8 14.5
35 24.10.2020 04:30 1 0 86.1 14.7
36 24.10.2020 04:00 1 0 86.3 14.6
37 24.10.2020 03:30 1 0 84.5 14.8
38 24.10.2020 03:00 0 0 83.8 14.9
39 24.10.2020 02:30 0 0 83.3 14.9
40 24.10.2020 02:00 1 0 82.8 15
41 24.10.2020 01:30 1 0 83.8 14.8
42 24.10.2020 01:00 1 0 85 14.6
43 24.10.2020 00:30 1 0 83.2 14.9
44 24.10.2020 00:00 0 0 81.2 15.2
45 23.10.2020 23:30 0 0 80.8 15.3
46 23.10.2020 23:00 0 0 79.7 15.4
47 23.10.2020 22:30 0 0 77.7 15.6
48 23.10.2020 22:00 0 0 78.1 15.4
© 2011 Ministrstvo za kmetijstvo, gozdarstvo in prehrano. Vse pravice pridržane.